sensor_id;sensor_type;location;lat;lon;timestamp;P1;durP1;ratioP1;P2;durP2;ratioP2
20621;SDS011;10470;42.670;23.354;2023-02-23T00:03:48;24.63;;;13.70;;
20621;SDS011;10470;42.670;23.354;2023-02-23T00:06:15;24.30;;;14.27;;
20621;SDS011;10470;42.670;23.354;2023-02-23T00:08:41;25.23;;;13.07;;
20621;SDS011;10470;42.670;23.354;2023-02-23T00:11:10;23.40;;;13.70;;
20621;SDS011;10470;42.670;23.354;2023-02-23T00:13:36;21.00;;;13.93;;
20621;SDS011;10470;42.670;23.354;2023-02-23T00:16:11;24.90;;;14.10;;
20621;SDS011;10470;42.670;23.354;2023-02-23T00:18:46;23.07;;;13.90;;
20621;SDS011;10470;42.670;23.354;2023-02-23T00:21:19;26.37;;;14.20;;
20621;SDS011;10470;42.670;23.354;2023-02-23T00:23:52;27.13;;;13.90;;
20621;SDS011;10470;42.670;23.354;2023-02-23T00:26:20;26.47;;;14.30;;
20621;SDS011;10470;42.670;23.354;2023-02-23T00:28:50;23.87;;;14.13;;
20621;SDS011;10470;42.670;23.354;2023-02-23T00:31:18;26.27;;;14.37;;
20621;SDS011;10470;42.670;23.354;2023-02-23T00:33:49;24.73;;;14.20;;
20621;SDS011;10470;42.670;23.354;2023-02-23T00:36:18;25.33;;;13.77;;
20621;SDS011;10470;42.670;23.354;2023-02-23T00:38:44;24.03;;;13.30;;
20621;SDS011;10470;42.670;23.354;2023-02-23T00:41:11;23.27;;;12.37;;
20621;SDS011;10470;42.670;23.354;2023-02-23T00:43:40;19.43;;;11.57;;
20621;SDS011;10470;42.670;23.354;2023-02-23T00:46:14;23.00;;;12.60;;
20621;SDS011;10470;42.670;23.354;2023-02-23T00:48:42;17.03;;;10.87;;
20621;SDS011;10470;42.670;23.354;2023-02-23T00:51:09;17.63;;;11.13;;
20621;SDS011;10470;42.670;23.354;2023-02-23T00:53:35;18.27;;;9.57;;
20621;SDS011;10470;42.670;23.354;2023-02-23T00:56:03;16.97;;;9.90;;
20621;SDS011;10470;42.670;23.354;2023-02-23T00:58:29;16.70;;;9.73;;
20621;SDS011;10470;42.670;23.354;2023-02-23T01:00:55;18.60;;;10.13;;
20621;SDS011;10470;42.670;23.354;2023-02-23T01:03:23;15.43;;;9.57;;
20621;SDS011;10470;42.670;23.354;2023-02-23T01:05:49;17.47;;;9.43;;
20621;SDS011;10470;42.670;23.354;2023-02-23T01:08:16;15.07;;;9.17;;
20621;SDS011;10470;42.670;23.354;2023-02-23T01:10:42;12.33;;;8.67;;
20621;SDS011;10470;42.670;23.354;2023-02-23T01:13:09;14.37;;;8.37;;
20621;SDS011;10470;42.670;23.354;2023-02-23T01:15:41;11.83;;;8.30;;
20621;SDS011;10470;42.670;23.354;2023-02-23T01:18:08;11.07;;;7.80;;
20621;SDS011;10470;42.670;23.354;2023-02-23T01:20:35;11.27;;;8.03;;
20621;SDS011;10470;42.670;23.354;2023-02-23T01:23:01;11.87;;;7.83;;
20621;SDS011;10470;42.670;23.354;2023-02-23T01:25:29;12.03;;;7.97;;
20621;SDS011;10470;42.670;23.354;2023-02-23T01:27:54;14.27;;;8.50;;
20621;SDS011;10470;42.670;23.354;2023-02-23T01:30:20;12.57;;;8.40;;
20621;SDS011;10470;42.670;23.354;2023-02-23T01:32:46;10.77;;;7.77;;
20621;SDS011;10470;42.670;23.354;2023-02-23T01:35:12;13.70;;;8.50;;
20621;SDS011;10470;42.670;23.354;2023-02-23T01:37:38;12.63;;;8.70;;
20621;SDS011;10470;42.670;23.354;2023-02-23T01:40:06;12.73;;;8.10;;
20621;SDS011;10470;42.670;23.354;2023-02-23T01:42:42;13.67;;;8.07;;
20621;SDS011;10470;42.670;23.354;2023-02-23T01:47:56;13.10;;;8.27;;
20621;SDS011;10470;42.670;23.354;2023-02-23T01:50:26;12.73;;;8.03;;
20621;SDS011;10470;42.670;23.354;2023-02-23T01:52:53;10.57;;;7.43;;
20621;SDS011;10470;42.670;23.354;2023-02-23T01:55:20;10.40;;;7.37;;
20621;SDS011;10470;42.670;23.354;2023-02-23T01:58:02;11.23;;;7.63;;
20621;SDS011;10470;42.670;23.354;2023-02-23T02:00:32;11.40;;;7.60;;
20621;SDS011;10470;42.670;23.354;2023-02-23T02:03:01;12.07;;;7.33;;
20621;SDS011;10470;42.670;23.354;2023-02-23T02:05:33;13.60;;;7.97;;
20621;SDS011;10470;42.670;23.354;2023-02-23T02:08:02;10.27;;;7.20;;
20621;SDS011;10470;42.670;23.354;2023-02-23T02:10:30;14.07;;;8.67;;
20621;SDS011;10470;42.670;23.354;2023-02-23T02:13:05;17.33;;;9.77;;
20621;SDS011;10470;42.670;23.354;2023-02-23T02:15:34;18.13;;;9.60;;
20621;SDS011;10470;42.670;23.354;2023-02-23T02:18:10;18.23;;;9.93;;
20621;SDS011;10470;42.670;23.354;2023-02-23T02:29:28;18.57;;;10.03;;
20621;SDS011;10470;42.670;23.354;2023-02-23T02:45:27;23.73;;;12.67;;
20621;SDS011;10470;42.670;23.354;2023-02-23T02:48:11;27.27;;;15.27;;
20621;SDS011;10470;42.670;23.354;2023-02-23T02:50:50;23.27;;;15.53;;
20621;SDS011;10470;42.670;23.354;2023-02-23T02:53:22;30.23;;;17.00;;
20621;SDS011;10470;42.670;23.354;2023-02-23T02:56:08;26.07;;;15.50;;
20621;SDS011;10470;42.670;23.354;2023-02-23T02:58:35;33.57;;;18.70;;
20621;SDS011;10470;42.670;23.354;2023-02-23T03:01:07;31.97;;;17.90;;
20621;SDS011;10470;42.670;23.354;2023-02-23T03:03:54;30.20;;;17.00;;
20621;SDS011;10470;42.670;23.354;2023-02-23T03:06:46;31.80;;;18.73;;
20621;SDS011;10470;42.670;23.354;2023-02-23T03:09:50;33.27;;;19.97;;
20621;SDS011;10470;42.670;23.354;2023-02-23T03:12:45;39.20;;;21.47;;
20621;SDS011;10470;42.670;23.354;2023-02-23T03:21:35;43.73;;;25.20;;
20621;SDS011;10470;42.670;23.354;2023-02-23T03:24:53;50.57;;;28.40;;
20621;SDS011;10470;42.670;23.354;2023-02-23T03:27:44;51.53;;;28.47;;
20621;SDS011;10470;42.670;23.354;2023-02-23T03:34:14;35.20;;;20.77;;
20621;SDS011;10470;42.670;23.354;2023-02-23T03:36:53;31.03;;;18.23;;
20621;SDS011;10470;42.670;23.354;2023-02-23T03:39:46;38.77;;;22.57;;
20621;SDS011;10470;42.670;23.354;2023-02-23T03:42:36;28.33;;;16.37;;
20621;SDS011;10470;42.670;23.354;2023-02-23T03:45:23;31.30;;;16.67;;
20621;SDS011;10470;42.670;23.354;2023-02-23T03:48:10;35.77;;;19.17;;
20621;SDS011;10470;42.670;23.354;2023-02-23T03:50:58;31.13;;;17.90;;
20621;SDS011;10470;42.670;23.354;2023-02-23T03:54:07;33.73;;;17.87;;
20621;SDS011;10470;42.670;23.354;2023-02-23T03:57:03;37.17;;;19.97;;
20621;SDS011;10470;42.670;23.354;2023-02-23T03:59:54;32.20;;;18.43;;
20621;SDS011;10470;42.670;23.354;2023-02-23T04:02:43;29.40;;;16.73;;
20621;SDS011;10470;42.670;23.354;2023-02-23T04:05:31;30.93;;;17.93;;
20621;SDS011;10470;42.670;23.354;2023-02-23T04:08:19;35.77;;;19.77;;
20621;SDS011;10470;42.670;23.354;2023-02-23T04:14:13;32.30;;;18.83;;
20621;SDS011;10470;42.670;23.354;2023-02-23T04:16:44;35.13;;;19.27;;
20621;SDS011;10470;42.670;23.354;2023-02-23T04:19:11;30.97;;;17.93;;
20621;SDS011;10470;42.670;23.354;2023-02-23T04:21:36;28.00;;;18.33;;
20621;SDS011;10470;42.670;23.354;2023-02-23T04:24:02;30.03;;;18.70;;
20621;SDS011;10470;42.670;23.354;2023-02-23T04:26:27;33.27;;;19.03;;
20621;SDS011;10470;42.670;23.354;2023-02-23T04:28:53;34.60;;;18.97;;
20621;SDS011;10470;42.670;23.354;2023-02-23T04:31:18;36.70;;;18.43;;
20621;SDS011;10470;42.670;23.354;2023-02-23T04:33:44;30.87;;;17.73;;
20621;SDS011;10470;42.670;23.354;2023-02-23T04:36:09;32.90;;;18.20;;
20621;SDS011;10470;42.670;23.354;2023-02-23T04:38:35;32.53;;;18.70;;
20621;SDS011;10470;42.670;23.354;2023-02-23T04:41:00;40.63;;;24.03;;
20621;SDS011;10470;42.670;23.354;2023-02-23T04:43:26;28.03;;;17.37;;
20621;SDS011;10470;42.670;23.354;2023-02-23T04:45:51;32.03;;;20.07;;
20621;SDS011;10470;42.670;23.354;2023-02-23T04:48:17;29.97;;;17.80;;
20621;SDS011;10470;42.670;23.354;2023-02-23T04:50:43;35.60;;;16.70;;
20621;SDS011;10470;42.670;23.354;2023-02-23T04:53:08;35.77;;;20.53;;
20621;SDS011;10470;42.670;23.354;2023-02-23T04:55:33;37.40;;;19.43;;
20621;SDS011;10470;42.670;23.354;2023-02-23T04:57:59;37.27;;;18.40;;
20621;SDS011;10470;42.670;23.354;2023-02-23T05:00:26;36.00;;;20.00;;
20621;SDS011;10470;42.670;23.354;2023-02-23T05:02:53;40.00;;;20.60;;
20621;SDS011;10470;42.670;23.354;2023-02-23T05:05:19;42.40;;;24.30;;
20621;SDS011;10470;42.670;23.354;2023-02-23T05:07:45;42.07;;;25.40;;
20621;SDS011;10470;42.670;23.354;2023-02-23T05:10:11;40.70;;;24.57;;
20621;SDS011;10470;42.670;23.354;2023-02-23T05:12:36;36.47;;;20.63;;
20621;SDS011;10470;42.670;23.354;2023-02-23T05:15:02;38.73;;;21.00;;
20621;SDS011;10470;42.670;23.354;2023-02-23T05:17:27;38.03;;;21.00;;
20621;SDS011;10470;42.670;23.354;2023-02-23T05:19:53;39.60;;;20.97;;
20621;SDS011;10470;42.670;23.354;2023-02-23T05:22:19;40.50;;;21.93;;
20621;SDS011;10470;42.670;23.354;2023-02-23T05:24:44;39.70;;;21.97;;
20621;SDS011;10470;42.670;23.354;2023-02-23T05:27:10;39.30;;;21.53;;
20621;SDS011;10470;42.670;23.354;2023-02-23T05:29:38;40.63;;;21.87;;
20621;SDS011;10470;42.670;23.354;2023-02-23T05:32:06;38.57;;;20.30;;
20621;SDS011;10470;42.670;23.354;2023-02-23T05:34:32;32.17;;;18.47;;
20621;SDS011;10470;42.670;23.354;2023-02-23T05:36:58;34.73;;;18.40;;
20621;SDS011;10470;42.670;23.354;2023-02-23T05:39:24;35.97;;;19.97;;
20621;SDS011;10470;42.670;23.354;2023-02-23T05:41:49;38.27;;;21.07;;
20621;SDS011;10470;42.670;23.354;2023-02-23T05:44:14;36.93;;;21.63;;
20621;SDS011;10470;42.670;23.354;2023-02-23T05:46:40;37.93;;;21.53;;
20621;SDS011;10470;42.670;23.354;2023-02-23T05:49:06;36.50;;;21.53;;
20621;SDS011;10470;42.670;23.354;2023-02-23T05:51:32;35.87;;;21.00;;
20621;SDS011;10470;42.670;23.354;2023-02-23T05:53:59;38.83;;;20.37;;
20621;SDS011;10470;42.670;23.354;2023-02-23T05:56:27;38.13;;;19.70;;
20621;SDS011;10470;42.670;23.354;2023-02-23T05:58:54;31.80;;;16.63;;
20621;SDS011;10470;42.670;23.354;2023-02-23T06:01:24;28.10;;;16.17;;
20621;SDS011;10470;42.670;23.354;2023-02-23T06:03:51;21.83;;;12.40;;
20621;SDS011;10470;42.670;23.354;2023-02-23T06:06:17;23.00;;;11.90;;
20621;SDS011;10470;42.670;23.354;2023-02-23T06:08:42;24.07;;;12.60;;
20621;SDS011;10470;42.670;23.354;2023-02-23T06:11:08;25.90;;;12.60;;
20621;SDS011;10470;42.670;23.354;2023-02-23T06:13:34;25.70;;;12.67;;
20621;SDS011;10470;42.670;23.354;2023-02-23T06:16:00;21.40;;;12.67;;
20621;SDS011;10470;42.670;23.354;2023-02-23T06:18:25;20.47;;;12.77;;
20621;SDS011;10470;42.670;23.354;2023-02-23T06:20:51;22.47;;;11.97;;
20621;SDS011;10470;42.670;23.354;2023-02-23T06:23:17;24.60;;;12.73;;
20621;SDS011;10470;42.670;23.354;2023-02-23T06:25:43;20.20;;;12.43;;
20621;SDS011;10470;42.670;23.354;2023-02-23T06:28:10;23.17;;;12.53;;
20621;SDS011;10470;42.670;23.354;2023-02-23T06:30:36;22.07;;;12.93;;
20621;SDS011;10470;42.670;23.354;2023-02-23T06:33:02;27.27;;;13.90;;
20621;SDS011;10470;42.670;23.354;2023-02-23T06:35:29;27.90;;;13.67;;
20621;SDS011;10470;42.670;23.354;2023-02-23T06:37:54;25.97;;;13.50;;
20621;SDS011;10470;42.670;23.354;2023-02-23T06:40:21;26.53;;;12.57;;
20621;SDS011;10470;42.670;23.354;2023-02-23T06:42:46;24.07;;;11.23;;
20621;SDS011;10470;42.670;23.354;2023-02-23T06:45:12;23.23;;;11.80;;
20621;SDS011;10470;42.670;23.354;2023-02-23T06:47:38;25.63;;;13.80;;
20621;SDS011;10470;42.670;23.354;2023-02-23T06:50:04;25.90;;;14.07;;
20621;SDS011;10470;42.670;23.354;2023-02-23T06:52:31;30.87;;;15.90;;
20621;SDS011;10470;42.670;23.354;2023-02-23T06:54:57;47.80;;;21.83;;
20621;SDS011;10470;42.670;23.354;2023-02-23T06:57:22;37.60;;;22.87;;
20621;SDS011;10470;42.670;23.354;2023-02-23T06:59:48;52.80;;;29.30;;
20621;SDS011;10470;42.670;23.354;2023-02-23T07:02:13;52.57;;;28.10;;
20621;SDS011;10470;42.670;23.354;2023-02-23T07:04:38;54.47;;;29.20;;
20621;SDS011;10470;42.670;23.354;2023-02-23T07:07:04;51.93;;;29.57;;
20621;SDS011;10470;42.670;23.354;2023-02-23T07:09:29;54.77;;;28.87;;
20621;SDS011;10470;42.670;23.354;2023-02-23T07:11:55;52.63;;;29.33;;
20621;SDS011;10470;42.670;23.354;2023-02-23T07:14:20;55.67;;;31.43;;
20621;SDS011;10470;42.670;23.354;2023-02-23T07:16:46;59.47;;;32.57;;
20621;SDS011;10470;42.670;23.354;2023-02-23T07:19:12;58.67;;;32.70;;
20621;SDS011;10470;42.670;23.354;2023-02-23T07:21:37;61.40;;;32.20;;
20621;SDS011;10470;42.670;23.354;2023-02-23T07:24:03;56.83;;;30.83;;
20621;SDS011;10470;42.670;23.354;2023-02-23T07:26:30;53.53;;;29.73;;
20621;SDS011;10470;42.670;23.354;2023-02-23T07:28:57;50.53;;;28.57;;
20621;SDS011;10470;42.670;23.354;2023-02-23T07:31:23;52.87;;;30.03;;
20621;SDS011;10470;42.670;23.354;2023-02-23T07:33:50;47.10;;;28.03;;
20621;SDS011;10470;42.670;23.354;2023-02-23T07:36:18;42.20;;;26.13;;
20621;SDS011;10470;42.670;23.354;2023-02-23T07:38:47;47.43;;;24.43;;
20621;SDS011;10470;42.670;23.354;2023-02-23T07:41:13;45.70;;;24.50;;
20621;SDS011;10470;42.670;23.354;2023-02-23T07:43:38;36.87;;;22.73;;
20621;SDS011;10470;42.670;23.354;2023-02-23T07:46:04;36.47;;;18.83;;
20621;SDS011;10470;42.670;23.354;2023-02-23T07:48:30;37.10;;;19.90;;
20621;SDS011;10470;42.670;23.354;2023-02-23T07:50:55;36.00;;;16.80;;
20621;SDS011;10470;42.670;23.354;2023-02-23T07:53:21;27.63;;;14.17;;
20621;SDS011;10470;42.670;23.354;2023-02-23T07:55:54;24.80;;;13.63;;
20621;SDS011;10470;42.670;23.354;2023-02-23T07:58:22;21.83;;;13.77;;
20621;SDS011;10470;42.670;23.354;2023-02-23T08:00:48;27.87;;;14.10;;
20621;SDS011;10470;42.670;23.354;2023-02-23T08:03:13;28.20;;;15.83;;
20621;SDS011;10470;42.670;23.354;2023-02-23T08:05:39;27.43;;;16.47;;
20621;SDS011;10470;42.670;23.354;2023-02-23T08:08:04;26.50;;;16.03;;
20621;SDS011;10470;42.670;23.354;2023-02-23T08:10:30;31.37;;;17.30;;
20621;SDS011;10470;42.670;23.354;2023-02-23T08:12:56;31.30;;;16.13;;
20621;SDS011;10470;42.670;23.354;2023-02-23T08:15:22;26.83;;;16.50;;
20621;SDS011;10470;42.670;23.354;2023-02-23T08:17:48;34.17;;;17.50;;
20621;SDS011;10470;42.670;23.354;2023-02-23T08:20:13;30.57;;;17.43;;
20621;SDS011;10470;42.670;23.354;2023-02-23T08:22:38;28.53;;;17.10;;
20621;SDS011;10470;42.670;23.354;2023-02-23T08:25:04;30.93;;;17.70;;
20621;SDS011;10470;42.670;23.354;2023-02-23T08:27:32;33.47;;;19.90;;
20621;SDS011;10470;42.670;23.354;2023-02-23T08:29:59;31.07;;;18.10;;
20621;SDS011;10470;42.670;23.354;2023-02-23T08:32:28;28.90;;;17.47;;
20621;SDS011;10470;42.670;23.354;2023-02-23T08:34:54;27.60;;;17.07;;
20621;SDS011;10470;42.670;23.354;2023-02-23T08:37:22;31.77;;;18.10;;
20621;SDS011;10470;42.670;23.354;2023-02-23T08:39:48;33.93;;;18.17;;
20621;SDS011;10470;42.670;23.354;2023-02-23T08:42:14;27.80;;;17.23;;
20621;SDS011;10470;42.670;23.354;2023-02-23T08:44:40;27.87;;;18.03;;
20621;SDS011;10470;42.670;23.354;2023-02-23T08:47:05;30.40;;;16.30;;
20621;SDS011;10470;42.670;23.354;2023-02-23T08:49:31;25.40;;;15.33;;
20621;SDS011;10470;42.670;23.354;2023-02-23T08:51:57;22.63;;;14.87;;
20621;SDS011;10470;42.670;23.354;2023-02-23T08:54:22;26.07;;;15.80;;
20621;SDS011;10470;42.670;23.354;2023-02-23T08:56:48;22.83;;;14.50;;
20621;SDS011;10470;42.670;23.354;2023-02-23T08:59:13;25.43;;;14.10;;
20621;SDS011;10470;42.670;23.354;2023-02-23T09:01:39;20.70;;;13.97;;
20621;SDS011;10470;42.670;23.354;2023-02-23T09:04:06;18.57;;;12.67;;
20621;SDS011;10470;42.670;23.354;2023-02-23T09:06:31;19.90;;;12.07;;
20621;SDS011;10470;42.670;23.354;2023-02-23T09:08:59;27.00;;;13.13;;
20621;SDS011;10470;42.670;23.354;2023-02-23T09:11:24;21.90;;;13.57;;
20621;SDS011;10470;42.670;23.354;2023-02-23T09:13:50;23.43;;;14.30;;
20621;SDS011;10470;42.670;23.354;2023-02-23T09:16:15;26.57;;;14.90;;
20621;SDS011;10470;42.670;23.354;2023-02-23T09:18:41;21.57;;;14.20;;
20621;SDS011;10470;42.670;23.354;2023-02-23T09:21:07;20.77;;;14.07;;
20621;SDS011;10470;42.670;23.354;2023-02-23T09:23:42;19.33;;;12.70;;
20621;SDS011;10470;42.670;23.354;2023-02-23T09:26:09;17.33;;;10.93;;
20621;SDS011;10470;42.670;23.354;2023-02-23T09:28:35;17.43;;;10.50;;
20621;SDS011;10470;42.670;23.354;2023-02-23T09:31:13;18.83;;;11.60;;
20621;SDS011;10470;42.670;23.354;2023-02-23T09:33:40;16.70;;;10.17;;
20621;SDS011;10470;42.670;23.354;2023-02-23T09:36:07;21.33;;;10.97;;
20621;SDS011;10470;42.670;23.354;2023-02-23T09:38:37;19.10;;;11.23;;
20621;SDS011;10470;42.670;23.354;2023-02-23T09:41:03;20.23;;;12.57;;
20621;SDS011;10470;42.670;23.354;2023-02-23T09:44:31;18.37;;;10.47;;
20621;SDS011;10470;42.670;23.354;2023-02-23T09:49:38;15.73;;;9.43;;
20621;SDS011;10470;42.670;23.354;2023-02-23T09:52:27;18.23;;;9.03;;
20621;SDS011;10470;42.670;23.354;2023-02-23T09:55:04;9.43;;;6.50;;
20621;SDS011;10470;42.670;23.354;2023-02-23T09:57:37;12.03;;;7.50;;
20621;SDS011;10470;42.670;23.354;2023-02-23T10:00:15;13.13;;;7.73;;
20621;SDS011;10470;42.670;23.354;2023-02-23T10:05:47;14.63;;;9.83;;
20621;SDS011;10470;42.670;23.354;2023-02-23T10:08:42;16.30;;;10.03;;
20621;SDS011;10470;42.670;23.354;2023-02-23T10:11:36;18.30;;;9.30;;
20621;SDS011;10470;42.670;23.354;2023-02-23T10:22:25;13.73;;;8.70;;
20621;SDS011;10470;42.670;23.354;2023-02-23T10:24:57;19.80;;;8.73;;
20621;SDS011;10470;42.670;23.354;2023-02-23T10:28:00;13.97;;;8.30;;
20621;SDS011;10470;42.670;23.354;2023-02-23T10:30:26;11.77;;;8.40;;
20621;SDS011;10470;42.670;23.354;2023-02-23T10:35:20;11.87;;;7.70;;
20621;SDS011;10470;42.670;23.354;2023-02-23T10:37:46;12.67;;;7.90;;
20621;SDS011;10470;42.670;23.354;2023-02-23T10:40:18;11.97;;;8.20;;
20621;SDS011;10470;42.670;23.354;2023-02-23T10:42:47;12.33;;;8.17;;
20621;SDS011;10470;42.670;23.354;2023-02-23T10:45:14;15.40;;;8.87;;
20621;SDS011;10470;42.670;23.354;2023-02-23T10:47:46;16.03;;;9.27;;
20621;SDS011;10470;42.670;23.354;2023-02-23T10:50:15;17.03;;;10.10;;
20621;SDS011;10470;42.670;23.354;2023-02-23T10:52:43;18.70;;;9.37;;
20621;SDS011;10470;42.670;23.354;2023-02-23T10:57:59;20.77;;;11.57;;
20621;SDS011;10470;42.670;23.354;2023-02-23T11:00:27;16.60;;;9.53;;
20621;SDS011;10470;42.670;23.354;2023-02-23T11:02:57;17.30;;;9.70;;
20621;SDS011;10470;42.670;23.354;2023-02-23T11:05:34;18.77;;;9.67;;
20621;SDS011;10470;42.670;23.354;2023-02-23T11:08:08;16.27;;;9.77;;
20621;SDS011;10470;42.670;23.354;2023-02-23T11:10:35;13.27;;;7.80;;
20621;SDS011;10470;42.670;23.354;2023-02-23T11:13:00;13.10;;;7.63;;
20621;SDS011;10470;42.670;23.354;2023-02-23T11:15:30;12.47;;;7.23;;
20621;SDS011;10470;42.670;23.354;2023-02-23T11:18:01;12.57;;;7.17;;
20621;SDS011;10470;42.670;23.354;2023-02-23T11:20:30;10.20;;;7.10;;
20621;SDS011;10470;42.670;23.354;2023-02-23T11:23:09;10.37;;;6.63;;
20621;SDS011;10470;42.670;23.354;2023-02-23T11:25:41;9.50;;;6.77;;
20621;SDS011;10470;42.670;23.354;2023-02-23T11:28:19;10.07;;;6.60;;
20621;SDS011;10470;42.670;23.354;2023-02-23T11:30:51;11.47;;;7.30;;
20621;SDS011;10470;42.670;23.354;2023-02-23T11:33:18;10.67;;;6.10;;
20621;SDS011;10470;42.670;23.354;2023-02-23T11:35:51;8.57;;;5.70;;
20621;SDS011;10470;42.670;23.354;2023-02-23T11:38:25;8.83;;;5.80;;
20621;SDS011;10470;42.670;23.354;2023-02-23T11:43:24;8.60;;;5.93;;
20621;SDS011;10470;42.670;23.354;2023-02-23T11:45:51;7.83;;;6.57;;
20621;SDS011;10470;42.670;23.354;2023-02-23T11:51:21;8.23;;;5.60;;
20621;SDS011;10470;42.670;23.354;2023-02-23T11:53:49;7.77;;;5.23;;
20621;SDS011;10470;42.670;23.354;2023-02-23T11:56:18;7.80;;;5.43;;
20621;SDS011;10470;42.670;23.354;2023-02-23T11:58:47;9.73;;;6.50;;
20621;SDS011;10470;42.670;23.354;2023-02-23T12:01:19;7.10;;;5.90;;
20621;SDS011;10470;42.670;23.354;2023-02-23T12:03:48;8.77;;;5.93;;
20621;SDS011;10470;42.670;23.354;2023-02-23T12:06:32;7.30;;;5.80;;
20621;SDS011;10470;42.670;23.354;2023-02-23T12:11:49;7.00;;;5.03;;
20621;SDS011;10470;42.670;23.354;2023-02-23T12:14:22;9.33;;;5.33;;
20621;SDS011;10470;42.670;23.354;2023-02-23T12:16:56;7.80;;;5.83;;
20621;SDS011;10470;42.670;23.354;2023-02-23T12:19:28;9.90;;;6.37;;
20621;SDS011;10470;42.670;23.354;2023-02-23T12:22:10;9.43;;;5.67;;
20621;SDS011;10470;42.670;23.354;2023-02-23T12:27:25;9.10;;;6.03;;
20621;SDS011;10470;42.670;23.354;2023-02-23T12:30:03;9.73;;;6.07;;
20621;SDS011;10470;42.670;23.354;2023-02-23T12:32:50;8.17;;;5.40;;
20621;SDS011;10470;42.670;23.354;2023-02-23T12:38:55;8.53;;;6.10;;
20621;SDS011;10470;42.670;23.354;2023-02-23T12:41:29;10.00;;;6.40;;
20621;SDS011;10470;42.670;23.354;2023-02-23T12:46:38;8.23;;;5.67;;
20621;SDS011;10470;42.670;23.354;2023-02-23T12:52:03;6.33;;;5.20;;
20621;SDS011;10470;42.670;23.354;2023-02-23T12:54:35;10.90;;;5.90;;
20621;SDS011;10470;42.670;23.354;2023-02-23T13:07:58;7.90;;;5.60;;
20621;SDS011;10470;42.670;23.354;2023-02-23T13:16:58;8.27;;;5.23;;
20621;SDS011;10470;42.670;23.354;2023-02-23T13:19:14;10.00;;;5.87;;
20621;SDS011;10470;42.670;23.354;2023-02-23T13:21:56;7.90;;;5.70;;
20621;SDS011;10470;42.670;23.354;2023-02-23T13:24:36;6.60;;;5.00;;
20621;SDS011;10470;42.670;23.354;2023-02-23T13:27:22;9.97;;;5.47;;
20621;SDS011;10470;42.670;23.354;2023-02-23T13:29:54;8.30;;;5.10;;
20621;SDS011;10470;42.670;23.354;2023-02-23T13:32:23;11.03;;;5.37;;
20621;SDS011;10470;42.670;23.354;2023-02-23T13:34:57;11.50;;;5.33;;
20621;SDS011;10470;42.670;23.354;2023-02-23T13:37:32;6.60;;;5.10;;
20621;SDS011;10470;42.670;23.354;2023-02-23T13:48:56;6.37;;;4.80;;
20621;SDS011;10470;42.670;23.354;2023-02-23T13:56:31;7.87;;;5.37;;
20621;SDS011;10470;42.670;23.354;2023-02-23T13:59:07;8.80;;;5.07;;
20621;SDS011;10470;42.670;23.354;2023-02-23T14:01:50;10.20;;;5.53;;
20621;SDS011;10470;42.670;23.354;2023-02-23T14:04:28;6.70;;;5.03;;
20621;SDS011;10470;42.670;23.354;2023-02-23T14:09:37;9.33;;;4.80;;
20621;SDS011;10470;42.670;23.354;2023-02-23T14:12:12;7.10;;;4.70;;
20621;SDS011;10470;42.670;23.354;2023-02-23T14:14:44;8.20;;;5.27;;
20621;SDS011;10470;42.670;23.354;2023-02-23T14:19:43;6.50;;;5.50;;
20621;SDS011;10470;42.670;23.354;2023-02-23T14:22:27;7.47;;;5.13;;
20621;SDS011;10470;42.670;23.354;2023-02-23T14:27:57;7.03;;;4.43;;
20621;SDS011;10470;42.670;23.354;2023-02-23T14:30:42;7.70;;;4.40;;
20621;SDS011;10470;42.670;23.354;2023-02-23T14:39:01;7.90;;;5.10;;
20621;SDS011;10470;42.670;23.354;2023-02-23T14:41:37;7.20;;;5.00;;
20621;SDS011;10470;42.670;23.354;2023-02-23T14:47:05;7.27;;;4.90;;
20621;SDS011;10470;42.670;23.354;2023-02-23T14:49:37;7.77;;;5.33;;
20621;SDS011;10470;42.670;23.354;2023-02-23T14:52:31;8.97;;;5.40;;
20621;SDS011;10470;42.670;23.354;2023-02-23T14:57:36;8.23;;;5.97;;
20621;SDS011;10470;42.670;23.354;2023-02-23T15:00:18;10.77;;;6.50;;
20621;SDS011;10470;42.670;23.354;2023-02-23T15:05:18;12.70;;;6.37;;
20621;SDS011;10470;42.670;23.354;2023-02-23T15:07:46;12.73;;;6.80;;
20621;SDS011;10470;42.670;23.354;2023-02-23T15:10:27;9.03;;;6.03;;
20621;SDS011;10470;42.670;23.354;2023-02-23T15:12:56;11.63;;;6.00;;
20621;SDS011;10470;42.670;23.354;2023-02-23T15:15:23;11.50;;;6.93;;
20621;SDS011;10470;42.670;23.354;2023-02-23T15:17:51;16.63;;;7.00;;
20621;SDS011;10470;42.670;23.354;2023-02-23T15:20:21;11.00;;;7.30;;
20621;SDS011;10470;42.670;23.354;2023-02-23T15:22:53;14.27;;;7.80;;
20621;SDS011;10470;42.670;23.354;2023-02-23T15:25:31;13.83;;;8.00;;
20621;SDS011;10470;42.670;23.354;2023-02-23T15:27:58;13.17;;;7.80;;
20621;SDS011;10470;42.670;23.354;2023-02-23T15:30:26;18.83;;;9.70;;
20621;SDS011;10470;42.670;23.354;2023-02-23T15:32:58;18.20;;;10.30;;
20621;SDS011;10470;42.670;23.354;2023-02-23T15:38:46;15.20;;;9.70;;
20621;SDS011;10470;42.670;23.354;2023-02-23T15:43:53;14.53;;;8.50;;
20621;SDS011;10470;42.670;23.354;2023-02-23T15:46:27;20.37;;;10.70;;
20621;SDS011;10470;42.670;23.354;2023-02-23T15:48:54;20.87;;;12.07;;
20621;SDS011;10470;42.670;23.354;2023-02-23T15:51:38;23.77;;;12.60;;
20621;SDS011;10470;42.670;23.354;2023-02-23T15:57:06;24.53;;;13.80;;
20621;SDS011;10470;42.670;23.354;2023-02-23T15:59:44;24.70;;;14.57;;
20621;SDS011;10470;42.670;23.354;2023-02-23T16:02:21;25.97;;;13.60;;
20621;SDS011;10470;42.670;23.354;2023-02-23T16:04:48;25.63;;;14.80;;
20621;SDS011;10470;42.670;23.354;2023-02-23T16:07:18;24.00;;;13.47;;
20621;SDS011;10470;42.670;23.354;2023-02-23T16:09:53;26.90;;;12.43;;
20621;SDS011;10470;42.670;23.354;2023-02-23T16:12:39;20.43;;;10.80;;
20621;SDS011;10470;42.670;23.354;2023-02-23T16:15:21;22.23;;;11.33;;
20621;SDS011;10470;42.670;23.354;2023-02-23T16:17:54;22.10;;;11.27;;
20621;SDS011;10470;42.670;23.354;2023-02-23T16:23:06;16.40;;;9.63;;
20621;SDS011;10470;42.670;23.354;2023-02-23T16:25:40;18.27;;;8.70;;
20621;SDS011;10470;42.670;23.354;2023-02-23T16:28:08;16.87;;;8.93;;
20621;SDS011;10470;42.670;23.354;2023-02-23T16:30:40;18.33;;;8.70;;
20621;SDS011;10470;42.670;23.354;2023-02-23T16:38:44;14.30;;;8.27;;
20621;SDS011;10470;42.670;23.354;2023-02-23T16:41:20;14.07;;;8.23;;
20621;SDS011;10470;42.670;23.354;2023-02-23T16:43:50;14.60;;;7.80;;
20621;SDS011;10470;42.670;23.354;2023-02-23T16:46:17;16.93;;;9.13;;
20621;SDS011;10470;42.670;23.354;2023-02-23T16:48:43;18.13;;;9.30;;
20621;SDS011;10470;42.670;23.354;2023-02-23T16:51:16;18.80;;;9.80;;
20621;SDS011;10470;42.670;23.354;2023-02-23T16:53:44;19.37;;;10.17;;
20621;SDS011;10470;42.670;23.354;2023-02-23T16:56:10;18.70;;;9.43;;
20621;SDS011;10470;42.670;23.354;2023-02-23T16:58:41;13.67;;;8.13;;
20621;SDS011;10470;42.670;23.354;2023-02-23T17:01:13;16.97;;;8.70;;
20621;SDS011;10470;42.670;23.354;2023-02-23T17:03:40;16.53;;;9.00;;
20621;SDS011;10470;42.670;23.354;2023-02-23T17:06:06;17.27;;;9.53;;
20621;SDS011;10470;42.670;23.354;2023-02-23T17:08:32;18.90;;;10.30;;